sensor_id;sensor_type;location;lat;lon;timestamp;P1;durP1;ratioP1;P2;durP2;ratioP2
26582;SDS011;14230;45.382;10.998;2023-02-26T00:01:37;118.63;;;51.05;;
26582;SDS011;14230;45.382;10.998;2023-02-26T00:04:06;117.55;;;51.25;;
26582;SDS011;14230;45.382;10.998;2023-02-26T00:06:36;119.72;;;52.80;;
26582;SDS011;14230;45.382;10.998;2023-02-26T00:09:18;115.55;;;50.92;;
26582;SDS011;14230;45.382;10.998;2023-02-26T00:11:46;120.85;;;51.05;;
26582;SDS011;14230;45.382;10.998;2023-02-26T00:14:15;122.82;;;50.65;;
26582;SDS011;14230;45.382;10.998;2023-02-26T00:16:43;118.32;;;52.65;;
26582;SDS011;14230;45.382;10.998;2023-02-26T00:19:16;123.07;;;53.13;;
26582;SDS011;14230;45.382;10.998;2023-02-26T00:21:44;119.93;;;52.90;;
26582;SDS011;14230;45.382;10.998;2023-02-26T00:24:13;119.55;;;52.63;;
26582;SDS011;14230;45.382;10.998;2023-02-26T00:26:40;113.40;;;51.72;;
26582;SDS011;14230;45.382;10.998;2023-02-26T00:29:08;122.60;;;53.95;;
26582;SDS011;14230;45.382;10.998;2023-02-26T00:31:36;121.70;;;51.92;;
26582;SDS011;14230;45.382;10.998;2023-02-26T00:34:04;118.63;;;51.30;;
26582;SDS011;14230;45.382;10.998;2023-02-26T00:42:37;116.63;;;49.95;;
26582;SDS011;14230;45.382;10.998;2023-02-26T00:45:06;113.13;;;51.28;;
26582;SDS011;14230;45.382;10.998;2023-02-26T00:47:40;120.82;;;51.05;;
26582;SDS011;14230;45.382;10.998;2023-02-26T00:50:21;114.43;;;49.70;;
26582;SDS011;14230;45.382;10.998;2023-02-26T00:55:37;114.70;;;49.03;;
26582;SDS011;14230;45.382;10.998;2023-02-26T00:58:05;119.60;;;50.17;;
26582;SDS011;14230;45.382;10.998;2023-02-26T01:00:32;118.43;;;51.03;;
26582;SDS011;14230;45.382;10.998;2023-02-26T01:03:01;117.85;;;50.05;;
26582;SDS011;14230;45.382;10.998;2023-02-26T01:05:29;132.10;;;56.17;;
26582;SDS011;14230;45.382;10.998;2023-02-26T01:10:31;152.80;;;69.35;;
26582;SDS011;14230;45.382;10.998;2023-02-26T01:13:01;157.55;;;62.45;;
26582;SDS011;14230;45.382;10.998;2023-02-26T01:15:28;118.82;;;53.33;;
26582;SDS011;14230;45.382;10.998;2023-02-26T01:20:28;101.97;;;47.53;;
26582;SDS011;14230;45.382;10.998;2023-02-26T01:23:06;97.45;;;44.47;;
26582;SDS011;14230;45.382;10.998;2023-02-26T01:25:41;117.95;;;47.10;;
26582;SDS011;14230;45.382;10.998;2023-02-26T01:28:20;99.60;;;44.78;;
26582;SDS011;14230;45.382;10.998;2023-02-26T01:30:49;105.00;;;45.17;;
26582;SDS011;14230;45.382;10.998;2023-02-26T01:33:24;113.88;;;44.67;;
26582;SDS011;14230;45.382;10.998;2023-02-26T01:36:12;98.07;;;43.90;;
26582;SDS011;14230;45.382;10.998;2023-02-26T01:39:06;101.22;;;45.00;;
26582;SDS011;14230;45.382;10.998;2023-02-26T01:41:38;106.57;;;46.20;;
26582;SDS011;14230;45.382;10.998;2023-02-26T01:49:36;107.78;;;45.10;;
26582;SDS011;14230;45.382;10.998;2023-02-26T01:52:06;99.78;;;44.45;;
26582;SDS011;14230;45.382;10.998;2023-02-26T01:54:53;95.97;;;43.05;;
26582;SDS011;14230;45.382;10.998;2023-02-26T01:57:20;102.78;;;46.65;;
26582;SDS011;14230;45.382;10.998;2023-02-26T01:59:48;111.22;;;48.72;;
26582;SDS011;14230;45.382;10.998;2023-02-26T02:02:19;106.55;;;47.85;;
26582;SDS011;14230;45.382;10.998;2023-02-26T02:04:48;112.63;;;46.38;;
26582;SDS011;14230;45.382;10.998;2023-02-26T02:07:16;107.43;;;46.30;;
26582;SDS011;14230;45.382;10.998;2023-02-26T02:09:45;112.28;;;48.05;;
26582;SDS011;14230;45.382;10.998;2023-02-26T02:18:07;110.25;;;47.97;;
26582;SDS011;14230;45.382;10.998;2023-02-26T02:39:32;24.23;;;7.93;;
26582;SDS011;14230;45.382;10.998;2023-02-26T02:44:40;13.50;;;7.45;;
26582;SDS011;14230;45.382;10.998;2023-02-26T02:47:12;17.35;;;5.25;;
26582;SDS011;14230;45.382;10.998;2023-02-26T02:49:45;8.98;;;4.63;;
26582;SDS011;14230;45.382;10.998;2023-02-26T02:52:17;8.63;;;4.13;;
26582;SDS011;14230;45.382;10.998;2023-02-26T02:55:14;5.13;;;3.60;;
26582;SDS011;14230;45.382;10.998;2023-02-26T02:57:48;7.43;;;3.92;;
26582;SDS011;14230;45.382;10.998;2023-02-26T03:00:29;8.15;;;7.38;;
26582;SDS011;14230;45.382;10.998;2023-02-26T03:03:04;8.80;;;8.05;;
26582;SDS011;14230;45.382;10.998;2023-02-26T03:05:44;5.50;;;5.10;;
26582;SDS011;14230;45.382;10.998;2023-02-26T03:08:14;4.57;;;4.28;;
26582;SDS011;14230;45.382;10.998;2023-02-26T03:10:45;7.63;;;6.93;;
26582;SDS011;14230;45.382;10.998;2023-02-26T03:13:14;10.45;;;3.65;;
26582;SDS011;14230;45.382;10.998;2023-02-26T03:21:20;3.08;;;2.88;;
26582;SDS011;14230;45.382;10.998;2023-02-26T03:26:33;4.03;;;1.70;;
26582;SDS011;14230;45.382;10.998;2023-02-26T03:32:10;2.53;;;2.33;;
26582;SDS011;14230;45.382;10.998;2023-02-26T03:34:47;3.33;;;3.03;;
26582;SDS011;14230;45.382;10.998;2023-02-26T03:37:19;4.70;;;4.30;;
26582;SDS011;14230;45.382;10.998;2023-02-26T03:40:00;1.77;;;1.63;;
26582;SDS011;14230;45.382;10.998;2023-02-26T03:42:38;3.83;;;3.50;;
26582;SDS011;14230;45.382;10.998;2023-02-26T03:45:18;10.73;;;10.07;;
26582;SDS011;14230;45.382;10.998;2023-02-26T03:47:50;4.95;;;4.65;;
26582;SDS011;14230;45.382;10.998;2023-02-26T03:50:23;4.40;;;1.17;;
26582;SDS011;14230;45.382;10.998;2023-02-26T03:53:46;1.55;;;1.45;;
26582;SDS011;14230;45.382;10.998;2023-02-26T03:56:29;13.55;;;2.05;;
26582;SDS011;14230;45.382;10.998;2023-02-26T03:59:26;9.52;;;6.35;;
26582;SDS011;14230;45.382;10.998;2023-02-26T04:02:17;2.83;;;2.15;;
26582;SDS011;14230;45.382;10.998;2023-02-26T04:04:56;3.60;;;1.52;;
26582;SDS011;14230;45.382;10.998;2023-02-26T04:07:27;2.83;;;1.80;;
26582;SDS011;14230;45.382;10.998;2023-02-26T04:09:55;1.98;;;1.73;;
26582;SDS011;14230;45.382;10.998;2023-02-26T04:12:26;1.30;;;1.30;;
26582;SDS011;14230;45.382;10.998;2023-02-26T04:14:55;3.03;;;2.45;;
26582;SDS011;14230;45.382;10.998;2023-02-26T04:17:24;2.20;;;2.10;;
26582;SDS011;14230;45.382;10.998;2023-02-26T04:19:51;2.03;;;1.92;;
26582;SDS011;14230;45.382;10.998;2023-02-26T04:22:19;3.92;;;3.72;;
26582;SDS011;14230;45.382;10.998;2023-02-26T04:24:46;2.15;;;1.02;;
26582;SDS011;14230;45.382;10.998;2023-02-26T04:27:15;9.75;;;6.53;;
26582;SDS011;14230;45.382;10.998;2023-02-26T04:29:43;2.50;;;2.40;;
26582;SDS011;14230;45.382;10.998;2023-02-26T04:32:10;2.65;;;2.42;;
26582;SDS011;14230;45.382;10.998;2023-02-26T04:34:38;6.00;;;2.70;;
26582;SDS011;14230;45.382;10.998;2023-02-26T04:37:06;1.45;;;1.35;;
26582;SDS011;14230;45.382;10.998;2023-02-26T04:39:34;5.43;;;5.13;;
26582;SDS011;14230;45.382;10.998;2023-02-26T04:42:01;3.58;;;3.28;;
26582;SDS011;14230;45.382;10.998;2023-02-26T04:44:31;4.30;;;4.10;;
26582;SDS011;14230;45.382;10.998;2023-02-26T04:47:01;2.45;;;1.25;;
26582;SDS011;14230;45.382;10.998;2023-02-26T04:49:30;2.03;;;1.92;;
26582;SDS011;14230;45.382;10.998;2023-02-26T04:51:58;2.15;;;1.73;;
26582;SDS011;14230;45.382;10.998;2023-02-26T04:54:26;2.53;;;2.35;;
26582;SDS011;14230;45.382;10.998;2023-02-26T04:56:54;5.28;;;4.97;;
26582;SDS011;14230;45.382;10.998;2023-02-26T04:59:21;6.90;;;2.28;;
26582;SDS011;14230;45.382;10.998;2023-02-26T05:01:49;2.83;;;2.50;;
26582;SDS011;14230;45.382;10.998;2023-02-26T05:04:17;2.63;;;2.47;;
26582;SDS011;14230;45.382;10.998;2023-02-26T05:06:49;2.67;;;2.47;;
26582;SDS011;14230;45.382;10.998;2023-02-26T05:09:16;7.00;;;6.63;;
26582;SDS011;14230;45.382;10.998;2023-02-26T05:11:44;2.78;;;2.67;;
26582;SDS011;14230;45.382;10.998;2023-02-26T05:14:12;5.00;;;4.70;;
26582;SDS011;14230;45.382;10.998;2023-02-26T05:16:40;6.03;;;1.83;;
26582;SDS011;14230;45.382;10.998;2023-02-26T05:19:07;14.82;;;13.93;;
26582;SDS011;14230;45.382;10.998;2023-02-26T05:21:35;4.38;;;3.20;;
26582;SDS011;14230;45.382;10.998;2023-02-26T05:24:03;2.50;;;1.80;;
26582;SDS011;14230;45.382;10.998;2023-02-26T05:26:30;1.40;;;1.40;;
26582;SDS011;14230;45.382;10.998;2023-02-26T05:28:58;3.83;;;3.55;;
26582;SDS011;14230;45.382;10.998;2023-02-26T05:31:25;7.05;;;1.90;;
26582;SDS011;14230;45.382;10.998;2023-02-26T05:33:53;3.13;;;1.55;;
26582;SDS011;14230;45.382;10.998;2023-02-26T05:36:20;14.95;;;14.10;;
26582;SDS011;14230;45.382;10.998;2023-02-26T05:38:48;8.95;;;8.48;;
26582;SDS011;14230;45.382;10.998;2023-02-26T05:41:15;3.25;;;2.95;;
26582;SDS011;14230;45.382;10.998;2023-02-26T05:43:43;5.28;;;4.90;;
26582;SDS011;14230;45.382;10.998;2023-02-26T05:46:10;1.98;;;1.88;;
26582;SDS011;14230;45.382;10.998;2023-02-26T05:48:38;5.95;;;5.60;;
26582;SDS011;14230;45.382;10.998;2023-02-26T05:51:05;2.17;;;1.98;;
26582;SDS011;14230;45.382;10.998;2023-02-26T05:53:33;1.73;;;1.63;;
26582;SDS011;14230;45.382;10.998;2023-02-26T05:56:00;9.95;;;9.43;;
26582;SDS011;14230;45.382;10.998;2023-02-26T05:58:28;2.42;;;2.33;;
26582;SDS011;14230;45.382;10.998;2023-02-26T06:00:57;2.70;;;2.50;;
26582;SDS011;14230;45.382;10.998;2023-02-26T06:03:24;2.33;;;1.92;;
26582;SDS011;14230;45.382;10.998;2023-02-26T06:05:52;3.17;;;2.72;;
26582;SDS011;14230;45.382;10.998;2023-02-26T06:08:19;1.23;;;1.13;;
26582;SDS011;14230;45.382;10.998;2023-02-26T06:10:47;1.75;;;1.65;;
26582;SDS011;14230;45.382;10.998;2023-02-26T06:13:17;2.72;;;2.53;;
26582;SDS011;14230;45.382;10.998;2023-02-26T06:15:46;1.70;;;1.60;;
26582;SDS011;14230;45.382;10.998;2023-02-26T06:18:16;5.13;;;4.93;;
26582;SDS011;14230;45.382;10.998;2023-02-26T06:20:43;1.45;;;1.30;;
26582;SDS011;14230;45.382;10.998;2023-02-26T06:23:11;1.58;;;1.48;;
26582;SDS011;14230;45.382;10.998;2023-02-26T06:25:40;3.42;;;3.13;;
26582;SDS011;14230;45.382;10.998;2023-02-26T06:28:08;1.75;;;1.65;;
26582;SDS011;14230;45.382;10.998;2023-02-26T06:30:35;3.47;;;1.35;;
26582;SDS011;14230;45.382;10.998;2023-02-26T06:33:03;1.55;;;1.30;;
26582;SDS011;14230;45.382;10.998;2023-02-26T06:35:30;0.82;;;0.82;;
26582;SDS011;14230;45.382;10.998;2023-02-26T06:37:58;4.38;;;4.15;;
26582;SDS011;14230;45.382;10.998;2023-02-26T06:40:25;8.82;;;8.40;;
26582;SDS011;14230;45.382;10.998;2023-02-26T06:42:53;2.67;;;1.50;;
26582;SDS011;14230;45.382;10.998;2023-02-26T06:45:21;1.60;;;1.50;;
26582;SDS011;14230;45.382;10.998;2023-02-26T06:47:50;2.45;;;1.50;;
26582;SDS011;14230;45.382;10.998;2023-02-26T06:50:18;6.35;;;2.35;;
26582;SDS011;14230;45.382;10.998;2023-02-26T06:52:46;1.60;;;1.50;;
26582;SDS011;14230;45.382;10.998;2023-02-26T06:55:13;3.47;;;2.17;;
26582;SDS011;14230;45.382;10.998;2023-02-26T06:57:41;6.15;;;3.30;;
26582;SDS011;14230;45.382;10.998;2023-02-26T07:00:08;4.60;;;3.85;;
26582;SDS011;14230;45.382;10.998;2023-02-26T07:02:36;5.20;;;3.92;;
26582;SDS011;14230;45.382;10.998;2023-02-26T07:05:04;2.42;;;1.17;;
26582;SDS011;14230;45.382;10.998;2023-02-26T07:07:32;1.35;;;1.20;;
26582;SDS011;14230;45.382;10.998;2023-02-26T07:09:59;2.15;;;1.05;;
26582;SDS011;14230;45.382;10.998;2023-02-26T07:12:27;1.17;;;1.10;;
26582;SDS011;14230;45.382;10.998;2023-02-26T07:14:54;2.55;;;2.45;;
26582;SDS011;14230;45.382;10.998;2023-02-26T07:17:22;1.48;;;1.30;;
26582;SDS011;14230;45.382;10.998;2023-02-26T07:19:50;2.20;;;2.10;;
26582;SDS011;14230;45.382;10.998;2023-02-26T07:22:18;2.17;;;2.03;;
26582;SDS011;14230;45.382;10.998;2023-02-26T07:24:48;2.67;;;1.98;;
26582;SDS011;14230;45.382;10.998;2023-02-26T07:27:16;2.83;;;1.48;;
26582;SDS011;14230;45.382;10.998;2023-02-26T07:29:43;2.67;;;1.13;;
26582;SDS011;14230;45.382;10.998;2023-02-26T07:32:11;1.60;;;1.52;;
26582;SDS011;14230;45.382;10.998;2023-02-26T07:34:38;6.13;;;4.75;;
26582;SDS011;14230;45.382;10.998;2023-02-26T07:37:06;2.92;;;1.10;;
26582;SDS011;14230;45.382;10.998;2023-02-26T07:39:33;2.55;;;2.45;;
26582;SDS011;14230;45.382;10.998;2023-02-26T07:42:01;1.55;;;1.45;;
26582;SDS011;14230;45.382;10.998;2023-02-26T07:44:28;3.75;;;2.53;;
26582;SDS011;14230;45.382;10.998;2023-02-26T07:46:56;2.05;;;1.85;;
26582;SDS011;14230;45.382;10.998;2023-02-26T07:49:23;1.05;;;1.05;;
26582;SDS011;14230;45.382;10.998;2023-02-26T07:51:51;1.27;;;1.27;;
26582;SDS011;14230;45.382;10.998;2023-02-26T07:54:18;3.03;;;2.67;;
26582;SDS011;14230;45.382;10.998;2023-02-26T07:56:46;1.27;;;1.00;;
26582;SDS011;14230;45.382;10.998;2023-02-26T07:59:13;4.60;;;4.35;;
26582;SDS011;14230;45.382;10.998;2023-02-26T08:01:41;1.17;;;1.08;;
26582;SDS011;14230;45.382;10.998;2023-02-26T08:04:08;1.48;;;1.38;;
26582;SDS011;14230;45.382;10.998;2023-02-26T08:06:36;1.02;;;0.98;;
26582;SDS011;14230;45.382;10.998;2023-02-26T08:09:03;1.10;;;1.00;;
26582;SDS011;14230;45.382;10.998;2023-02-26T08:11:31;2.95;;;2.75;;
26582;SDS011;14230;45.382;10.998;2023-02-26T08:14:01;3.20;;;3.00;;
26582;SDS011;14230;45.382;10.998;2023-02-26T08:16:29;0.82;;;0.80;;
26582;SDS011;14230;45.382;10.998;2023-02-26T08:18:57;3.08;;;1.40;;
26582;SDS011;14230;45.382;10.998;2023-02-26T08:21:25;0.80;;;0.80;;
26582;SDS011;14230;45.382;10.998;2023-02-26T08:23:53;6.32;;;1.42;;
26582;SDS011;14230;45.382;10.998;2023-02-26T08:26:20;3.63;;;2.95;;
26582;SDS011;14230;45.382;10.998;2023-02-26T08:28:48;2.33;;;1.52;;
26582;SDS011;14230;45.382;10.998;2023-02-26T08:31:16;6.43;;;1.40;;
26582;SDS011;14230;45.382;10.998;2023-02-26T08:33:43;1.23;;;1.10;;
26582;SDS011;14230;45.382;10.998;2023-02-26T08:36:11;2.45;;;1.80;;
26582;SDS011;14230;45.382;10.998;2023-02-26T08:38:39;2.38;;;1.42;;
26582;SDS011;14230;45.382;10.998;2023-02-26T08:41:06;2.47;;;2.28;;
26582;SDS011;14230;45.382;10.998;2023-02-26T08:43:34;2.55;;;1.65;;
26582;SDS011;14230;45.382;10.998;2023-02-26T08:46:02;2.00;;;1.88;;
26582;SDS011;14230;45.382;10.998;2023-02-26T08:48:30;3.13;;;1.30;;
26582;SDS011;14230;45.382;10.998;2023-02-26T08:50:58;1.42;;;1.40;;
26582;SDS011;14230;45.382;10.998;2023-02-26T08:53:25;1.45;;;1.35;;
26582;SDS011;14230;45.382;10.998;2023-02-26T08:55:53;2.97;;;1.70;;
26582;SDS011;14230;45.382;10.998;2023-02-26T08:58:20;1.80;;;1.38;;
26582;SDS011;14230;45.382;10.998;2023-02-26T09:00:48;1.23;;;1.10;;
26582;SDS011;14230;45.382;10.998;2023-02-26T09:03:15;2.20;;;1.15;;
26582;SDS011;14230;45.382;10.998;2023-02-26T09:05:43;1.65;;;1.55;;
26582;SDS011;14230;45.382;10.998;2023-02-26T09:08:10;1.90;;;1.80;;
26582;SDS011;14230;45.382;10.998;2023-02-26T09:10:41;3.00;;;2.13;;
26582;SDS011;14230;45.382;10.998;2023-02-26T09:13:08;2.95;;;1.73;;
26582;SDS011;14230;45.382;10.998;2023-02-26T09:15:36;5.28;;;2.45;;
26582;SDS011;14230;45.382;10.998;2023-02-26T09:18:04;4.80;;;2.80;;
26582;SDS011;14230;45.382;10.998;2023-02-26T09:20:31;2.10;;;1.90;;
26582;SDS011;14230;45.382;10.998;2023-02-26T09:22:59;2.05;;;1.77;;
26582;SDS011;14230;45.382;10.998;2023-02-26T09:25:26;3.28;;;2.53;;
26582;SDS011;14230;45.382;10.998;2023-02-26T09:27:54;5.60;;;3.80;;
26582;SDS011;14230;45.382;10.998;2023-02-26T09:30:24;9.68;;;4.53;;
26582;SDS011;14230;45.382;10.998;2023-02-26T09:32:51;3.70;;;2.70;;
26582;SDS011;14230;45.382;10.998;2023-02-26T09:35:19;1.75;;;1.55;;
26582;SDS011;14230;45.382;10.998;2023-02-26T09:37:47;2.08;;;1.50;;
26582;SDS011;14230;45.382;10.998;2023-02-26T09:40:25;2.47;;;1.70;;
26582;SDS011;14230;45.382;10.998;2023-02-26T09:43:06;2.15;;;1.70;;
26582;SDS011;14230;45.382;10.998;2023-02-26T09:45:51;1.63;;;1.45;;
26582;SDS011;14230;45.382;10.998;2023-02-26T09:48:22;1.70;;;1.60;;
26582;SDS011;14230;45.382;10.998;2023-02-26T09:50:52;1.08;;;0.95;;
26582;SDS011;14230;45.382;10.998;2023-02-26T09:53:26;1.08;;;0.98;;
26582;SDS011;14230;45.382;10.998;2023-02-26T09:55:58;1.73;;;1.60;;
26582;SDS011;14230;45.382;10.998;2023-02-26T09:58:32;3.13;;;1.27;;
26582;SDS011;14230;45.382;10.998;2023-02-26T10:06:45;2.75;;;1.58;;
26582;SDS011;14230;45.382;10.998;2023-02-26T10:09:40;1.90;;;1.80;;
26582;SDS011;14230;45.382;10.998;2023-02-26T10:12:13;3.13;;;2.67;;
26582;SDS011;14230;45.382;10.998;2023-02-26T10:23:15;3.35;;;2.10;;
26582;SDS011;14230;45.382;10.998;2023-02-26T10:25:48;5.63;;;2.00;;
26582;SDS011;14230;45.382;10.998;2023-02-26T10:36:59;2.30;;;1.60;;
26582;SDS011;14230;45.382;10.998;2023-02-26T10:42:40;4.55;;;2.00;;
26582;SDS011;14230;45.382;10.998;2023-02-26T10:50:33;1.77;;;1.60;;
26582;SDS011;14230;45.382;10.998;2023-02-26T10:53:01;2.05;;;1.85;;
26582;SDS011;14230;45.382;10.998;2023-02-26T10:55:40;5.07;;;2.17;;
26582;SDS011;14230;45.382;10.998;2023-02-26T10:58:16;4.13;;;2.05;;
26582;SDS011;14230;45.382;10.998;2023-02-26T11:00:50;2.75;;;2.42;;
26582;SDS011;14230;45.382;10.998;2023-02-26T11:06:05;5.95;;;2.00;;
26582;SDS011;14230;45.382;10.998;2023-02-26T11:08:38;4.35;;;2.33;;
26582;SDS011;14230;45.382;10.998;2023-02-26T11:11:08;2.55;;;1.98;;
26582;SDS011;14230;45.382;10.998;2023-02-26T11:13:37;3.03;;;2.00;;
26582;SDS011;14230;45.382;10.998;2023-02-26T11:16:09;1.85;;;1.50;;
26582;SDS011;14230;45.382;10.998;2023-02-26T11:21:17;4.43;;;2.47;;
26582;SDS011;14230;45.382;10.998;2023-02-26T11:27:02;4.18;;;2.75;;
26582;SDS011;14230;45.382;10.998;2023-02-26T11:29:40;3.05;;;2.17;;
26582;SDS011;14230;45.382;10.998;2023-02-26T11:32:17;4.97;;;4.28;;
26582;SDS011;14230;45.382;10.998;2023-02-26T11:34:50;2.70;;;1.90;;
26582;SDS011;14230;45.382;10.998;2023-02-26T11:37:26;2.75;;;1.80;;
26582;SDS011;14230;45.382;10.998;2023-02-26T11:43:09;1.95;;;1.70;;
26582;SDS011;14230;45.382;10.998;2023-02-26T11:45:48;2.55;;;2.10;;
26582;SDS011;14230;45.382;10.998;2023-02-26T11:48:32;2.30;;;2.10;;
26582;SDS011;14230;45.382;10.998;2023-02-26T11:51:14;1.92;;;1.73;;
26582;SDS011;14230;45.382;10.998;2023-02-26T11:53:56;3.00;;;1.88;;
26582;SDS011;14230;45.382;10.998;2023-02-26T11:56:37;2.78;;;1.90;;
26582;SDS011;14230;45.382;10.998;2023-02-26T11:59:18;1.67;;;1.55;;
26582;SDS011;14230;45.382;10.998;2023-02-26T12:01:55;5.55;;;1.95;;
26582;SDS011;14230;45.382;10.998;2023-02-26T12:04:32;2.90;;;2.60;;
26582;SDS011;14230;45.382;10.998;2023-02-26T12:07:07;2.33;;;2.03;;
26582;SDS011;14230;45.382;10.998;2023-02-26T12:09:52;2.17;;;1.90;;
26582;SDS011;14230;45.382;10.998;2023-02-26T12:26:32;3.67;;;2.83;;
26582;SDS011;14230;45.382;10.998;2023-02-26T12:32:01;2.72;;;2.53;;
26582;SDS011;14230;45.382;10.998;2023-02-26T12:37:52;2.22;;;1.83;;
26582;SDS011;14230;45.382;10.998;2023-02-26T12:43:12;6.25;;;3.90;;
26582;SDS011;14230;45.382;10.998;2023-02-26T12:46:21;27.77;;;10.02;;
26582;SDS011;14230;45.382;10.998;2023-02-26T12:52:12;32.70;;;9.43;;
26582;SDS011;14230;45.382;10.998;2023-02-26T13:08:41;25.50;;;7.88;;
26582;SDS011;14230;45.382;10.998;2023-02-26T13:14:31;52.38;;;14.27;;
26582;SDS011;14230;45.382;10.998;2023-02-26T13:19:47;48.53;;;14.00;;
26582;SDS011;14230;45.382;10.998;2023-02-26T13:25:11;19.10;;;6.15;;
26582;SDS011;14230;45.382;10.998;2023-02-26T13:27:42;25.38;;;9.20;;
26582;SDS011;14230;45.382;10.998;2023-02-26T13:30:18;20.83;;;8.10;;
26582;SDS011;14230;45.382;10.998;2023-02-26T13:32:50;13.30;;;5.65;;
26582;SDS011;14230;45.382;10.998;2023-02-26T13:35:34;7.33;;;3.17;;
26582;SDS011;14230;45.382;10.998;2023-02-26T13:38:15;11.05;;;4.97;;
26582;SDS011;14230;45.382;10.998;2023-02-26T13:46:14;5.57;;;2.92;;
26582;SDS011;14230;45.382;10.998;2023-02-26T13:51:46;2.40;;;2.17;;
26582;SDS011;14230;45.382;10.998;2023-02-26T14:04:51;4.75;;;3.10;;
26582;SDS011;14230;45.382;10.998;2023-02-26T14:10:44;8.40;;;3.05;;
26582;SDS011;14230;45.382;10.998;2023-02-26T14:23:59;11.00;;;6.63;;
26582;SDS011;14230;45.382;10.998;2023-02-26T14:26:49;7.75;;;4.75;;
26582;SDS011;14230;45.382;10.998;2023-02-26T14:29:38;7.78;;;4.47;;
26582;SDS011;14230;45.382;10.998;2023-02-26T14:34:50;4.13;;;2.75;;
26582;SDS011;14230;45.382;10.998;2023-02-26T14:37:24;4.40;;;2.65;;
26582;SDS011;14230;45.382;10.998;2023-02-26T14:42:30;3.72;;;1.73;;
26582;SDS011;14230;45.382;10.998;2023-02-26T14:47:45;4.25;;;3.05;;
26582;SDS011;14230;45.382;10.998;2023-02-26T14:50:17;3.83;;;2.63;;
26582;SDS011;14230;45.382;10.998;2023-02-26T14:56:02;5.93;;;3.70;;
26582;SDS011;14230;45.382;10.998;2023-02-26T15:26:05;1.60;;;1.42;;
26582;SDS011;14230;45.382;10.998;2023-02-26T15:28:35;6.18;;;5.78;;
26582;SDS011;14230;45.382;10.998;2023-02-26T15:31:08;4.32;;;3.42;;
26582;SDS011;14230;45.382;10.998;2023-02-26T15:33:39;2.33;;;2.13;;
26582;SDS011;14230;45.382;10.998;2023-02-26T15:36:10;2.20;;;2.10;;
26582;SDS011;14230;45.382;10.998;2023-02-26T15:38:44;2.10;;;1.83;;
26582;SDS011;14230;45.382;10.998;2023-02-26T15:41:15;3.95;;;2.33;;
26582;SDS011;14230;45.382;10.998;2023-02-26T15:43:47;4.53;;;2.60;;
26582;SDS011;14230;45.382;10.998;2023-02-26T15:46:26;6.05;;;3.55;;
26582;SDS011;14230;45.382;10.998;2023-02-26T15:49:11;2.85;;;2.63;;
26582;SDS011;14230;45.382;10.998;2023-02-26T15:51:41;4.55;;;4.25;;
26582;SDS011;14230;45.382;10.998;2023-02-26T15:56:55;2.58;;;1.85;;
26582;SDS011;14230;45.382;10.998;2023-02-26T15:59:30;8.00;;;3.83;;
26582;SDS011;14230;45.382;10.998;2023-02-26T16:02:08;5.68;;;3.88;;
26582;SDS011;14230;45.382;10.998;2023-02-26T16:04:42;2.33;;;2.03;;
26582;SDS011;14230;45.382;10.998;2023-02-26T16:07:17;2.00;;;1.80;;
26582;SDS011;14230;45.382;10.998;2023-02-26T16:09:47;31.83;;;14.40;;
26582;SDS011;14230;45.382;10.998;2023-02-26T16:12:37;3.25;;;2.70;;
26582;SDS011;14230;45.382;10.998;2023-02-26T16:15:18;13.98;;;7.95;;
26582;SDS011;14230;45.382;10.998;2023-02-26T16:17:55;10.75;;;7.03;;
26582;SDS011;14230;45.382;10.998;2023-02-26T16:20:24;4.93;;;3.13;;
26582;SDS011;14230;45.382;10.998;2023-02-26T16:22:59;5.97;;;2.43;;
26582;SDS011;14230;45.382;10.998;2023-02-26T16:28:25;3.45;;;2.95;;
26582;SDS011;14230;45.382;10.998;2023-02-26T16:31:03;2.95;;;2.38;;
26582;SDS011;14230;45.382;10.998;2023-02-26T16:33:41;3.80;;;2.30;;
26582;SDS011;14230;45.382;10.998;2023-02-26T16:36:39;4.47;;;2.60;;
26582;SDS011;14230;45.382;10.998;2023-02-26T16:39:12;4.63;;;2.60;;
26582;SDS011;14230;45.382;10.998;2023-02-26T16:41:55;5.00;;;2.78;;
26582;SDS011;14230;45.382;10.998;2023-02-26T16:46:56;3.40;;;2.78;;
26582;SDS011;14230;45.382;10.998;2023-02-26T16:49:42;3.28;;;2.63;;
26582;SDS011;14230;45.382;10.998;2023-02-26T16:52:15;6.07;;;4.47;;
26582;SDS011;14230;45.382;10.998;2023-02-26T16:54:50;7.35;;;3.70;;
26582;SDS011;14230;45.382;10.998;2023-02-26T16:57:22;6.20;;;3.45;;
26582;SDS011;14230;45.382;10.998;2023-02-26T16:59:57;8.15;;;3.72;;
26582;SDS011;14230;45.382;10.998;2023-02-26T17:02:28;9.87;;;4.90;;
26582;SDS011;14230;45.382;10.998;2023-02-26T17:10:44;4.55;;;2.85;;
26582;SDS011;14230;45.382;10.998;2023-02-26T17:13:02;3.63;;;2.47;;
26582;SDS011;14230;45.382;10.998;2023-02-26T17:15:38;4.47;;;3.17;;
26582;SDS011;14230;45.382;10.998;2023-02-26T17:18:07;3.47;;;2.92;;
26582;SDS011;14230;45.382;10.998;2023-02-26T17:20:34;3.90;;;2.90;;
26582;SDS011;14230;45.382;10.998;2023-02-26T17:23:03;7.80;;;3.25;;
26582;SDS011;14230;45.382;10.998;2023-02-26T17:25:36;6.15;;;3.53;;
26582;SDS011;14230;45.382;10.998;2023-02-26T17:28:06;4.20;;;2.67;;
26582;SDS011;14230;45.382;10.998;2023-02-26T17:30:36;3.40;;;2.60;;
26582;SDS011;14230;45.382;10.998;2023-02-26T17:33:04;3.63;;;2.70;;
26582;SDS011;14230;45.382;10.998;2023-02-26T17:35:33;5.63;;;3.67;;
26582;SDS011;14230;45.382;10.998;2023-02-26T17:38:04;4.28;;;2.80;;
26582;SDS011;14230;45.382;10.998;2023-02-26T17:40:34;3.45;;;2.70;;
26582;SDS011;14230;45.382;10.998;2023-02-26T17:43:02;5.60;;;3.80;;
26582;SDS011;14230;45.382;10.998;2023-02-26T17:45:30;6.65;;;4.28;;
26582;SDS011;14230;45.382;10.998;2023-02-26T17:47:58;4.03;;;3.00;;
26582;SDS011;14230;45.382;10.998;2023-02-26T17:50:28;4.93;;;3.08;;
26582;SDS011;14230;45.382;10.998;2023-02-26T17:53:17;3.92;;;3.10;;
26582;SDS011;14230;45.382;10.998;2023-02-26T17:55:46;4.88;;;3.83;;
26582;SDS011;14230;45.382;10.998;2023-02-26T17:58:26;6.20;;;3.17;;
26582;SDS011;14230;45.382;10.998;2023-02-26T18:00:55;5.00;;;2.85;;
26582;SDS011;14230;45.382;10.998;2023-02-26T18:03:23;5.43;;;3.63;;
26582;SDS011;14230;45.382;10.998;2023-02-26T18:05:50;6.07;;;3.50;;
26582;SDS011;14230;45.382;10.998;2023-02-26T18:08:21;4.10;;;3.75;;
26582;SDS011;14230;45.382;10.998;2023-02-26T18:10:56;4.43;;;3.10;;
26582;SDS011;14230;45.382;10.998;2023-02-26T18:13:24;3.95;;;3.25;;
26582;SDS011;14230;45.382;10.998;2023-02-26T18:15:52;4.35;;;3.05;;
26582;SDS011;14230;45.382;10.998;2023-02-26T18:18:22;7.30;;;3.42;;
26582;SDS011;14230;45.382;10.998;2023-02-26T18:20:51;5.60;;;3.40;;
26582;SDS011;14230;45.382;10.998;2023-02-26T18:23:20;4.93;;;4.18;;
26582;SDS011;14230;45.382;10.998;2023-02-26T18:25:49;5.93;;;3.63;;
26582;SDS011;14230;45.382;10.998;2023-02-26T18:28:22;6.45;;;3.90;;
26582;SDS011;14230;45.382;10.998;2023-02-26T18:30:51;6.45;;;3.50;;
26582;SDS011;14230;45.382;10.998;2023-02-26T18:33:19;4.85;;;2.88;;
26582;SDS011;14230;45.382;10.998;2023-02-26T18:35:48;6.05;;;4.10;;
26582;SDS011;14230;45.382;10.998;2023-02-26T18:38:25;3.95;;;3.10;;
26582;SDS011;14230;45.382;10.998;2023-02-26T18:40:53;4.57;;;3.50;;
26582;SDS011;14230;45.382;10.998;2023-02-26T18:43:21;5.10;;;3.03;;
26582;SDS011;14230;45.382;10.998;2023-02-26T18:45:49;4.35;;;3.03;;
26582;SDS011;14230;45.382;10.998;2023-02-26T18:48:18;6.32;;;4.50;;
26582;SDS011;14230;45.382;10.998;2023-02-26T18:50:47;5.55;;;4.38;;